MST,Max TemperatureF,Mean TemperatureF,Min TemperatureF,Max Dew PointF,MeanDew PointF,Min DewpointF,Max Humidity, Mean Humidity, Min Humidity, Max Sea Level PressureIn, Mean Sea Level PressureIn, Min Sea Level PressureIn, Max VisibilityMiles, Mean VisibilityMiles, Min VisibilityMiles, Max Wind SpeedMPH, Mean Wind SpeedMPH, Max Gust SpeedMPH,PrecipitationIn, CloudCover, Events, WindDirDegrees
2012-12-1,51,43,35,32,29,25,75,59,41,30.18,30.10,30.03,10,10,10,8,3,,0.00,3,,67
2012-12-2,48,41,34,37,30,26,81,63,52,30.11,30.00,29.88,10,10,4,14,3,28,0.08,7,Rain,92
2012-12-3,48,36,24,32,20,13,75,53,28,30.40,30.21,29.99,10,10,10,13,7,,0.00,0,,350
2012-12-4,46,36,25,22,18,14,66,50,29,30.53,30.45,30.39,10,10,10,10,4,,0.00,2,,33
2012-12-5,46,37,28,25,20,16,64,48,30,30.38,30.23,30.07,10,10,10,6,3,,0.00,4,,33
2012-12-6,53,44,30,31,27,22,75,57,37,30.09,30.01,29.92,10,10,10,8,4,,0.00,3,,108
2012-12-7,48,38,24,25,18,13,67,49,28,30.09,30.02,29.94,10,10,10,15,6,26,0.00,2,,343
2012-12-8,46,34,21,18,14,11,68,51,24,30.03,29.96,29.87,10,10,10,28,11,36,0.00,1,,337
2012-12-9,30,22,15,12,3,-7,63,42,20,30.40,30.24,30.00,10,10,10,18,12,28,0.00,4,,328
2012-12-10,39,24,10,17,7,0,64,50,35,30.37,30.26,30.01,10,10,10,18,4,31,0.00,3,,319
2012-12-11,34,26,19,15,11,8,68,53,38,30.20,30.14,30.09,10,10,10,10,3,,0.00,4,,75
2012-12-12,37,27,17,14,11,8,68,51,35,30.11,30.05,30.00,10,10,10,7,2,,0.00,0,,52
2012-12-13,44,36,28,14,11,9,49,41,25,30.09,30.00,29.85,10,10,10,9,2,,0.00,3,,55
2012-12-14,37,34,30,32,29,13,93,84,42,29.83,29.69,29.58,10,3,0,8,3,,0.29,8,Fog-Snow,69
2012-12-15,33,25,17,31,26,13,96,87,75,29.93,29.81,29.76,10,5,0,12,5,,0.32,7,Fog-Snow,102
2012-12-16,34,26,19,27,21,15,93,84,69,30.10,29.96,29.78,10,10,2,10,3,,0.00,5,,46
2012-12-17,32,30,27,26,23,22,89,81,69,30.09,29.97,29.79,10,10,6,8,5,,0.00,8,Snow,82
2012-12-18,32,28,25,28,25,14,93,85,63,29.87,29.71,29.55,10,3,0,18,4,,0.38,8,Fog-Snow,337
2012-12-19,24,14,0,13,3,-8,70,54,42,30.61,30.15,29.68,10,10,2,17,13,28,0.00,2,,334
2012-12-20,18,9,0,3,-4,-9,73,63,50,30.78,30.71,30.60,10,10,10,9,4,,0.00,0,,19
2012-12-21,21,10,-2,3,-4,-11,73,63,44,30.71,30.61,30.51,10,10,10,8,3,,0.00,0,,16
2012-12-22,19,10,0,8,1,-7,77,69,60,30.54,30.41,30.11,10,10,10,5,1,,0.00,0,,46
2012-12-23,25,16,7,15,8,1,80,70,58,30.38,30.29,30.11,10,10,10,6,2,,0.00,3,,344
2012-12-24,30,24,19,23,17,7,88,77,48,30.10,29.89,29.70,10,5,0,21,2,31,0.16,6,Fog-Snow,300
2012-12-25,26,19,12,8,6,3,71,57,46,30.29,30.20,30.00,10,10,10,24,12,36,0.00,1,,9
2012-12-26,24,20,15,18,14,7,86,81,65,30.16,29.85,29.67,10,4,0,9,2,,0.12,8,Fog-Snow,68
2012-12-27,24,20,16,16,12,7,86,74,55,30.10,29.91,29.70,10,10,8,17,2,24,0.00,6,,318
2012-12-28,23,16,8,9,5,0,70,60,50,30.43,30.25,29.98,10,10,10,17,8,24,0.00,1,,344
2012-12-29,19,10,1,9,3,-4,77,69,57,30.50,30.39,30.26,10,10,10,6,2,,0.00,3,,22
2012-12-30,21,12,3,12,6,-2,78,69,60,30.26,30.15,29.98,10,10,10,5,1,,0.00,7,,88
2012-12-31,28,20,12,9,6,1,74,56,41,30.25,30.11,29.98,10,10,10,16,8,23,0.00,1,,327